sensor_id;sensor_type;location;lat;lon;timestamp;pressure;altitude;pressure_sealevel;temperature;humidity
62600;BME280;48671;48.922;2.346;2023-01-26T00:01:10;102383.06;;;2.15;72.86
62600;BME280;48671;48.922;2.346;2023-01-26T00:03:36;102384.91;;;2.20;73.28
62600;BME280;48671;48.922;2.346;2023-01-26T00:06:05;102357.22;;;2.07;73.24
62600;BME280;48671;48.922;2.346;2023-01-26T00:08:46;102359.97;;;2.15;73.47
62600;BME280;48671;48.922;2.346;2023-01-26T00:11:14;102350.53;;;2.14;73.06
62600;BME280;48671;48.922;2.346;2023-01-26T00:13:40;102356.59;;;2.17;73.33
62600;BME280;48671;48.922;2.346;2023-01-26T00:16:13;102338.34;;;2.05;72.91
62600;BME280;48671;48.922;2.346;2023-01-26T00:18:39;102343.59;;;2.09;73.23
62600;BME280;48671;48.922;2.346;2023-01-26T00:21:07;102326.44;;;2.08;73.42
62600;BME280;48671;48.922;2.346;2023-01-26T00:23:33;102338.63;;;2.17;73.36
62600;BME280;48671;48.922;2.346;2023-01-26T00:25:59;102315.38;;;2.11;73.79
62600;BME280;48671;48.922;2.346;2023-01-26T00:28:25;102337.19;;;2.30;74.44
62600;BME280;48671;48.922;2.346;2023-01-26T00:30:51;102330.34;;;2.29;73.71
62600;BME280;48671;48.922;2.346;2023-01-26T00:33:16;102306.75;;;2.09;73.55
62600;BME280;48671;48.922;2.346;2023-01-26T00:35:42;102307.69;;;2.11;74.12
62600;BME280;48671;48.922;2.346;2023-01-26T00:38:11;102302.38;;;2.03;73.97
62600;BME280;48671;48.922;2.346;2023-01-26T00:40:37;102302.47;;;2.06;74.68
62600;BME280;48671;48.922;2.346;2023-01-26T00:43:03;102325.94;;;2.23;74.43
62600;BME280;48671;48.922;2.346;2023-01-26T00:45:28;102301.84;;;2.18;74.01
62600;BME280;48671;48.922;2.346;2023-01-26T00:47:56;102294.06;;;2.15;74.51
62600;BME280;48671;48.922;2.346;2023-01-26T00:50:22;102283.84;;;2.17;75.00
62600;BME280;48671;48.922;2.346;2023-01-26T00:52:47;102284.91;;;2.26;75.03
62600;BME280;48671;48.922;2.346;2023-01-26T00:55:15;102282.34;;;2.26;74.79
62600;BME280;48671;48.922;2.346;2023-01-26T00:58:04;102268.53;;;2.21;74.95
62600;BME280;48671;48.922;2.346;2023-01-26T01:00:38;102263.38;;;2.21;73.97
62600;BME280;48671;48.922;2.346;2023-01-26T01:03:04;102277.25;;;2.29;74.45
62600;BME280;48671;48.922;2.346;2023-01-26T01:05:31;102274.78;;;2.34;74.58
62600;BME280;48671;48.922;2.346;2023-01-26T01:08:00;102274.78;;;2.34;75.12
62600;BME280;48671;48.922;2.346;2023-01-26T01:10:25;102292.03;;;2.41;75.25
62600;BME280;48671;48.922;2.346;2023-01-26T01:12:51;102279.13;;;2.38;75.27
62600;BME280;48671;48.922;2.346;2023-01-26T01:15:17;102276.56;;;2.38;74.85
62600;BME280;48671;48.922;2.346;2023-01-26T01:17:42;102255.88;;;2.30;75.25
62600;BME280;48671;48.922;2.346;2023-01-26T01:20:09;102274.84;;;2.39;75.31
62600;BME280;48671;48.922;2.346;2023-01-26T01:22:37;102255.81;;;2.27;75.28
62600;BME280;48671;48.922;2.346;2023-01-26T01:25:06;102281.63;;;2.35;74.97
62600;BME280;48671;48.922;2.346;2023-01-26T01:27:36;102265.22;;;2.27;75.32
62600;BME280;48671;48.922;2.346;2023-01-26T01:30:03;102266.16;;;2.30;75.46
62600;BME280;48671;48.922;2.346;2023-01-26T01:32:35;102258.38;;;2.27;75.75
62600;BME280;48671;48.922;2.346;2023-01-26T01:35:01;102271.53;;;2.43;76.39
62600;BME280;48671;48.922;2.346;2023-01-26T01:37:28;102243.09;;;2.35;75.74
62600;BME280;48671;48.922;2.346;2023-01-26T01:39:57;102254.38;;;2.42;76.25
62600;BME280;48671;48.922;2.346;2023-01-26T01:42:28;102266.59;;;2.52;75.94
62600;BME280;48671;48.922;2.346;2023-01-26T01:45:27;102281.09;;;2.51;75.49
62600;BME280;48671;48.922;2.346;2023-01-26T01:48:01;102268.16;;;2.45;75.50
62600;BME280;48671;48.922;2.346;2023-01-26T01:50:35;102263.66;;;2.35;75.77
62600;BME280;48671;48.922;2.346;2023-01-26T01:53:02;102251.59;;;2.29;76.17
62600;BME280;48671;48.922;2.346;2023-01-26T01:55:29;102251.50;;;2.26;77.04
62600;BME280;48671;48.922;2.346;2023-01-26T01:57:57;102276.59;;;2.40;76.08
62600;BME280;48671;48.922;2.346;2023-01-26T02:00:27;102264.63;;;2.40;76.47
62600;BME280;48671;48.922;2.346;2023-01-26T02:06:06;102264.56;;;2.37;76.80
62600;BME280;48671;48.922;2.346;2023-01-26T02:08:35;102273.25;;;2.44;76.48
62600;BME280;48671;48.922;2.346;2023-01-26T02:14:38;102238.81;;;2.32;76.57
62600;BME280;48671;48.922;2.346;2023-01-26T02:17:55;102241.44;;;2.37;76.63
62600;BME280;48671;48.922;2.346;2023-01-26T02:20:56;102246.66;;;2.42;76.58
62600;BME280;48671;48.922;2.346;2023-01-26T02:23:35;102243.94;;;2.32;76.92
62600;BME280;48671;48.922;2.346;2023-01-26T02:29:35;102242.41;;;2.42;76.69
62600;BME280;48671;48.922;2.346;2023-01-26T02:32:10;102255.41;;;2.50;76.86
62600;BME280;48671;48.922;2.346;2023-01-26T02:34:44;102235.50;;;2.40;77.54
62600;BME280;48671;48.922;2.346;2023-01-26T02:37:35;102238.13;;;2.43;77.30
62600;BME280;48671;48.922;2.346;2023-01-26T02:40:38;102220.03;;;2.37;77.17
62600;BME280;48671;48.922;2.346;2023-01-26T02:43:33;102220.06;;;2.38;77.31
62600;BME280;48671;48.922;2.346;2023-01-26T02:49:33;102231.34;;;2.46;77.31
62600;BME280;48671;48.922;2.346;2023-01-26T02:52:36;102220.97;;;2.42;77.02
62600;BME280;48671;48.922;2.346;2023-01-26T02:59:47;102219.25;;;2.41;77.06
62600;BME280;48671;48.922;2.346;2023-01-26T03:06:39;102219.31;;;2.44;76.86
62600;BME280;48671;48.922;2.346;2023-01-26T03:13:11;102211.47;;;2.36;77.75
62600;BME280;48671;48.922;2.346;2023-01-26T03:16:05;102241.75;;;2.54;77.37
62600;BME280;48671;48.922;2.346;2023-01-26T03:18:38;102215.09;;;2.47;77.71
62600;BME280;48671;48.922;2.346;2023-01-26T03:21:25;102205.50;;;2.37;77.33
62600;BME280;48671;48.922;2.346;2023-01-26T03:27:34;102214.22;;;2.47;77.27
62600;BME280;48671;48.922;2.346;2023-01-26T03:40:37;102184.03;;;2.33;78.00
62600;BME280;48671;48.922;2.346;2023-01-26T03:53:54;102177.16;;;2.32;77.84
62600;BME280;48671;48.922;2.346;2023-01-26T04:00:53;102198.94;;;2.54;77.26
62600;BME280;48671;48.922;2.346;2023-01-26T04:03:53;102176.50;;;2.43;77.52
62600;BME280;48671;48.922;2.346;2023-01-26T04:06:39;102169.53;;;2.39;77.57
62600;BME280;48671;48.922;2.346;2023-01-26T04:09:23;102200.69;;;2.55;78.06
62600;BME280;48671;48.922;2.346;2023-01-26T04:12:02;102175.78;;;2.51;77.82
62600;BME280;48671;48.922;2.346;2023-01-26T04:15:03;102188.72;;;2.56;77.92
62600;BME280;48671;48.922;2.346;2023-01-26T04:18:18;102180.84;;;2.48;77.70
62600;BME280;48671;48.922;2.346;2023-01-26T04:24:41;102189.56;;;2.56;77.74
62600;BME280;48671;48.922;2.346;2023-01-26T04:31:30;102180.94;;;2.53;78.04
62600;BME280;48671;48.922;2.346;2023-01-26T04:45:13;102196.53;;;2.62;78.88
62600;BME280;48671;48.922;2.346;2023-01-26T04:59:29;102192.16;;;2.58;78.09
62600;BME280;48671;48.922;2.346;2023-01-26T05:02:37;102187.88;;;2.57;77.58
62600;BME280;48671;48.922;2.346;2023-01-26T05:05:08;102185.25;;;2.54;78.33
62600;BME280;48671;48.922;2.346;2023-01-26T05:08:02;102173.13;;;2.47;78.03
62600;BME280;48671;48.922;2.346;2023-01-26T05:10:30;102168.00;;;2.47;78.47
62600;BME280;48671;48.922;2.346;2023-01-26T05:12:55;102180.09;;;2.54;78.66
62600;BME280;48671;48.922;2.346;2023-01-26T05:15:24;102173.16;;;2.48;78.57
62600;BME280;48671;48.922;2.346;2023-01-26T05:17:50;102180.16;;;2.55;78.66
62600;BME280;48671;48.922;2.346;2023-01-26T05:20:44;102187.03;;;2.58;78.55
62600;BME280;48671;48.922;2.346;2023-01-26T05:23:39;102180.97;;;2.54;79.02
62600;BME280;48671;48.922;2.346;2023-01-26T05:26:30;102167.03;;;2.42;78.31
62600;BME280;48671;48.922;2.346;2023-01-26T05:29:40;102174.69;;;2.39;78.64
62600;BME280;48671;48.922;2.346;2023-01-26T05:32:10;102197.25;;;2.55;78.19
62600;BME280;48671;48.922;2.346;2023-01-26T05:35:05;102190.31;;;2.51;78.59
62600;BME280;48671;48.922;2.346;2023-01-26T05:37:39;102186.94;;;2.52;78.96
62600;BME280;48671;48.922;2.346;2023-01-26T05:40:20;102185.00;;;2.42;78.46
62600;BME280;48671;48.922;2.346;2023-01-26T05:43:23;102178.13;;;2.39;78.66
62600;BME280;48671;48.922;2.346;2023-01-26T05:46:17;102195.41;;;2.48;78.18
62600;BME280;48671;48.922;2.346;2023-01-26T05:49:21;102175.50;;;2.36;78.78
62600;BME280;48671;48.922;2.346;2023-01-26T05:54:52;102175.53;;;2.38;78.87
62600;BME280;48671;48.922;2.346;2023-01-26T06:01:14;102169.50;;;2.36;78.34
62600;BME280;48671;48.922;2.346;2023-01-26T06:04:02;102168.66;;;2.37;78.55
62600;BME280;48671;48.922;2.346;2023-01-26T06:10:45;102185.84;;;2.41;78.19
62600;BME280;48671;48.922;2.346;2023-01-26T06:17:04;102215.28;;;2.56;79.37
62600;BME280;48671;48.922;2.346;2023-01-26T06:20:08;102200.72;;;2.57;78.62
62600;BME280;48671;48.922;2.346;2023-01-26T06:22:58;102199.06;;;2.61;78.56
62600;BME280;48671;48.922;2.346;2023-01-26T06:26:13;102189.59;;;2.58;78.84
62600;BME280;48671;48.922;2.346;2023-01-26T06:32:36;102191.41;;;2.62;78.14
62600;BME280;48671;48.922;2.346;2023-01-26T06:36:14;102183.47;;;2.51;78.90
62600;BME280;48671;48.922;2.346;2023-01-26T06:46:38;102193.84;;;2.56;79.27
62600;BME280;48671;48.922;2.346;2023-01-26T06:53:19;102201.63;;;2.59;78.80
62600;BME280;48671;48.922;2.346;2023-01-26T06:56:21;102210.19;;;2.60;78.45
62600;BME280;48671;48.922;2.346;2023-01-26T06:58:57;102187.75;;;2.51;78.76
62600;BME280;48671;48.922;2.346;2023-01-26T07:01:54;102190.25;;;2.48;78.92
62600;BME280;48671;48.922;2.346;2023-01-26T07:10:35;102186.59;;;2.35;78.78
62600;BME280;48671;48.922;2.346;2023-01-26T07:13:19;102204.75;;;2.43;78.81
62600;BME280;48671;48.922;2.346;2023-01-26T07:16:05;102196.88;;;2.35;79.41
62600;BME280;48671;48.922;2.346;2023-01-26T07:19:04;102191.66;;;2.30;79.08
62600;BME280;48671;48.922;2.346;2023-01-26T07:21:35;102220.13;;;2.41;79.99
62600;BME280;48671;48.922;2.346;2023-01-26T07:24:03;102205.44;;;2.34;79.29
62600;BME280;48671;48.922;2.346;2023-01-26T07:26:40;102196.94;;;2.38;79.50
62600;BME280;48671;48.922;2.346;2023-01-26T07:29:22;102207.31;;;2.44;79.84
62600;BME280;48671;48.922;2.346;2023-01-26T07:31:56;102197.84;;;2.40;79.14
62600;BME280;48671;48.922;2.346;2023-01-26T07:37:07;102208.34;;;2.52;79.34
62600;BME280;48671;48.922;2.346;2023-01-26T07:39:57;102222.19;;;2.59;79.03
62600;BME280;48671;48.922;2.346;2023-01-26T07:42:36;102208.25;;;2.48;78.61
62600;BME280;48671;48.922;2.346;2023-01-26T07:45:26;102203.03;;;2.43;78.49
62600;BME280;48671;48.922;2.346;2023-01-26T07:48:18;102189.34;;;2.43;78.85
62600;BME280;48671;48.922;2.346;2023-01-26T07:53:44;102230.81;;;2.64;78.77
62600;BME280;48671;48.922;2.346;2023-01-26T07:56:19;102219.50;;;2.54;78.58
62600;BME280;48671;48.922;2.346;2023-01-26T07:58:53;102208.31;;;2.51;79.54
62600;BME280;48671;48.922;2.346;2023-01-26T08:01:29;102234.28;;;2.66;79.35
62600;BME280;48671;48.922;2.346;2023-01-26T08:03:55;102233.50;;;2.69;79.07
62600;BME280;48671;48.922;2.346;2023-01-26T08:06:23;102221.38;;;2.63;79.15
62600;BME280;48671;48.922;2.346;2023-01-26T08:08:50;102223.00;;;2.58;78.56
62600;BME280;48671;48.922;2.346;2023-01-26T08:11:16;102223.00;;;2.58;78.57
62600;BME280;48671;48.922;2.346;2023-01-26T08:14:02;102246.41;;;2.72;78.42
62600;BME280;48671;48.922;2.346;2023-01-26T08:17:01;102243.78;;;2.70;78.57
62600;BME280;48671;48.922;2.346;2023-01-26T08:19:32;102231.66;;;2.63;79.37
62600;BME280;48671;48.922;2.346;2023-01-26T08:22:01;102240.22;;;2.64;78.95
62600;BME280;48671;48.922;2.346;2023-01-26T08:24:26;102257.47;;;2.69;78.97
62600;BME280;48671;48.922;2.346;2023-01-26T08:26:54;102251.47;;;2.69;78.92
62600;BME280;48671;48.922;2.346;2023-01-26T08:32:46;102252.22;;;2.65;78.43
62600;BME280;48671;48.922;2.346;2023-01-26T08:35:14;102252.22;;;2.63;78.42
62600;BME280;48671;48.922;2.346;2023-01-26T08:37:42;102264.28;;;2.67;78.51
62600;BME280;48671;48.922;2.346;2023-01-26T08:40:15;102267.69;;;2.66;78.76
62600;BME280;48671;48.922;2.346;2023-01-26T08:42:41;102264.16;;;2.61;78.65
62600;BME280;48671;48.922;2.346;2023-01-26T08:45:14;102271.19;;;2.70;78.94
62600;BME280;48671;48.922;2.346;2023-01-26T08:47:42;102265.00;;;2.60;78.41
62600;BME280;48671;48.922;2.346;2023-01-26T08:50:13;102284.16;;;2.76;78.33
62600;BME280;48671;48.922;2.346;2023-01-26T09:55:51;102319.78;;;3.01;79.04
62600;BME280;48671;48.922;2.346;2023-01-26T09:58:36;102314.81;;;3.12;79.62
62600;BME280;48671;48.922;2.346;2023-01-26T10:01:11;102313.09;;;3.11;79.24
62600;BME280;48671;48.922;2.346;2023-01-26T10:04:13;102309.66;;;3.12;78.82
62600;BME280;48671;48.922;2.346;2023-01-26T10:06:43;102320.00;;;3.15;78.58
62600;BME280;48671;48.922;2.346;2023-01-26T10:09:35;102315.72;;;3.14;78.91
62600;BME280;48671;48.922;2.346;2023-01-26T10:12:06;102313.09;;;3.11;78.17
62600;BME280;48671;48.922;2.346;2023-01-26T10:14:42;102319.03;;;3.10;78.72
62600;BME280;48671;48.922;2.346;2023-01-26T10:17:15;102305.19;;;3.02;78.90
62600;BME280;48671;48.922;2.346;2023-01-26T10:19:46;102329.44;;;3.15;79.64
62600;BME280;48671;48.922;2.346;2023-01-26T10:22:19;102314.81;;;3.12;78.83
62600;BME280;48671;48.922;2.346;2023-01-26T10:24:50;102305.31;;;3.08;79.83
62600;BME280;48671;48.922;2.346;2023-01-26T10:27:17;102336.47;;;3.25;79.37
62600;BME280;48671;48.922;2.346;2023-01-26T10:29:43;102316.63;;;3.19;78.77
62600;BME280;48671;48.922;2.346;2023-01-26T10:32:16;102323.66;;;3.28;79.32
62600;BME280;48671;48.922;2.346;2023-01-26T10:34:44;102314.06;;;3.19;78.53
62600;BME280;48671;48.922;2.346;2023-01-26T10:37:21;102325.28;;;3.23;78.84
62600;BME280;48671;48.922;2.346;2023-01-26T10:40:05;102317.50;;;3.18;78.55
62600;BME280;48671;48.922;2.346;2023-01-26T10:42:35;102300.25;;;3.13;79.17
62600;BME280;48671;48.922;2.346;2023-01-26T10:45:06;102324.56;;;3.32;79.65
62600;BME280;48671;48.922;2.346;2023-01-26T10:48:08;102322.91;;;3.35;78.97
62600;BME280;48671;48.922;2.346;2023-01-26T10:50:38;102304.84;;;3.31;79.13
62600;BME280;48671;48.922;2.346;2023-01-26T10:53:04;102298.91;;;3.36;79.12
62600;BME280;48671;48.922;2.346;2023-01-26T10:55:33;102312.84;;;3.49;78.55
62600;BME280;48671;48.922;2.346;2023-01-26T10:58:01;102292.25;;;3.47;79.42
62600;BME280;48671;48.922;2.346;2023-01-26T11:00:29;102299.19;;;3.53;78.96
62600;BME280;48671;48.922;2.346;2023-01-26T11:03:17;102297.59;;;3.61;79.17
62600;BME280;48671;48.922;2.346;2023-01-26T11:05:43;102302.84;;;3.67;79.36
62600;BME280;48671;48.922;2.346;2023-01-26T11:11:01;102292.59;;;3.70;78.15
62600;BME280;48671;48.922;2.346;2023-01-26T11:13:28;102285.69;;;3.68;78.21
62600;BME280;48671;48.922;2.346;2023-01-26T11:16:21;102291.84;;;3.76;78.87
62600;BME280;48671;48.922;2.346;2023-01-26T11:19:02;102259.09;;;3.67;78.44
62600;BME280;48671;48.922;2.346;2023-01-26T11:24:17;102287.59;;;3.80;78.71
62600;BME280;48671;48.922;2.346;2023-01-26T11:32:41;102284.22;;;3.85;78.26
62600;BME280;48671;48.922;2.346;2023-01-26T11:35:21;102278.28;;;3.89;78.62
62600;BME280;48671;48.922;2.346;2023-01-26T11:38:17;102267.91;;;3.85;78.69
62600;BME280;48671;48.922;2.346;2023-01-26T11:46:00;102268.09;;;3.98;78.70
62600;BME280;48671;48.922;2.346;2023-01-26T11:49:08;102275.06;;;4.04;78.94
62600;BME280;48671;48.922;2.346;2023-01-26T11:52:45;102262.97;;;4.00;78.45
62600;BME280;48671;48.922;2.346;2023-01-26T11:59:46;102248.25;;;3.91;79.51
62600;BME280;48671;48.922;2.346;2023-01-26T12:02:31;102275.94;;;4.06;80.06
62600;BME280;48671;48.922;2.346;2023-01-26T12:05:01;102254.31;;;3.93;79.31
62600;BME280;48671;48.922;2.346;2023-01-26T12:07:35;102246.56;;;3.92;79.41
62600;BME280;48671;48.922;2.346;2023-01-26T12:10:23;102269.00;;;4.01;79.72
62600;BME280;48671;48.922;2.346;2023-01-26T12:13:13;102256.94;;;3.98;79.46
62600;BME280;48671;48.922;2.346;2023-01-26T12:15:46;102258.72;;;4.04;79.84
62600;BME280;48671;48.922;2.346;2023-01-26T12:18:22;102257.03;;;4.04;79.12
62600;BME280;48671;48.922;2.346;2023-01-26T12:21:09;102260.53;;;4.09;79.23
62600;BME280;48671;48.922;2.346;2023-01-26T12:26:15;102253.72;;;4.13;79.57
62600;BME280;48671;48.922;2.346;2023-01-26T12:34:28;102243.41;;;4.13;79.48
62600;BME280;48671;48.922;2.346;2023-01-26T12:37:25;102239.97;;;4.12;79.93
62600;BME280;48671;48.922;2.346;2023-01-26T12:40:03;102231.34;;;4.12;79.69
62600;BME280;48671;48.922;2.346;2023-01-26T12:42:57;102234.00;;;4.16;79.82
62600;BME280;48671;48.922;2.346;2023-01-26T12:45:27;102212.41;;;4.07;80.47
62600;BME280;48671;48.922;2.346;2023-01-26T12:50:39;102226.38;;;4.26;79.88
62600;BME280;48671;48.922;2.346;2023-01-26T12:53:28;102226.38;;;4.26;79.05
62600;BME280;48671;48.922;2.346;2023-01-26T12:56:22;102221.19;;;4.24;79.36
62600;BME280;48671;48.922;2.346;2023-01-26T12:58:52;102207.38;;;4.17;79.83
62600;BME280;48671;48.922;2.346;2023-01-26T13:01:20;102196.97;;;4.07;79.73
62600;BME280;48671;48.922;2.346;2023-01-26T13:03:57;102216.88;;;4.21;79.95
62600;BME280;48671;48.922;2.346;2023-01-26T13:06:25;102211.69;;;4.15;79.82
62600;BME280;48671;48.922;2.346;2023-01-26T13:09:36;102200.56;;;4.21;79.82
62600;BME280;48671;48.922;2.346;2023-01-26T13:14:33;102210.88;;;4.24;80.10
62600;BME280;48671;48.922;2.346;2023-01-26T13:27:53;102221.25;;;4.27;80.40
62600;BME280;48671;48.922;2.346;2023-01-26T13:35:12;102216.91;;;4.25;80.60
62600;BME280;48671;48.922;2.346;2023-01-26T13:40:25;102202.34;;;4.28;80.54
62600;BME280;48671;48.922;2.346;2023-01-26T13:45:37;102210.09;;;4.30;79.84
62600;BME280;48671;48.922;2.346;2023-01-26T13:48:15;102209.28;;;4.34;80.54
62600;BME280;48671;48.922;2.346;2023-01-26T13:50:45;102203.31;;;4.36;81.06
62600;BME280;48671;48.922;2.346;2023-01-26T13:53:47;102219.69;;;4.43;80.54
62600;BME280;48671;48.922;2.346;2023-01-26T13:56:27;102206.75;;;4.37;80.13
62600;BME280;48671;48.922;2.346;2023-01-26T13:58:53;102219.69;;;4.43;80.46
62600;BME280;48671;48.922;2.346;2023-01-26T14:01:26;102217.13;;;4.41;80.70
62600;BME280;48671;48.922;2.346;2023-01-26T14:04:13;102180.88;;;4.26;80.97
62600;BME280;48671;48.922;2.346;2023-01-26T14:06:42;102221.44;;;4.47;80.99
62600;BME280;48671;48.922;2.346;2023-01-26T14:09:12;102207.75;;;4.48;80.85
62600;BME280;48671;48.922;2.346;2023-01-26T14:11:39;102215.47;;;4.51;80.66
62600;BME280;48671;48.922;2.346;2023-01-26T14:14:05;102204.31;;;4.49;80.70
62600;BME280;48671;48.922;2.346;2023-01-26T14:16:33;102212.91;;;4.51;81.02
62600;BME280;48671;48.922;2.346;2023-01-26T14:19:13;102195.69;;;4.47;80.94
62600;BME280;48671;48.922;2.346;2023-01-26T14:21:54;102213.84;;;4.59;81.14
62600;BME280;48671;48.922;2.346;2023-01-26T14:24:30;102218.22;;;4.66;81.00
62600;BME280;48671;48.922;2.346;2023-01-26T14:27:02;102188.03;;;4.55;81.02
62600;BME280;48671;48.922;2.346;2023-01-26T14:29:29;102189.72;;;4.54;81.11
62600;BME280;48671;48.922;2.346;2023-01-26T14:31:57;102209.63;;;4.67;81.29
62600;BME280;48671;48.922;2.346;2023-01-26T14:34:26;102207.94;;;4.69;80.98
62600;BME280;48671;48.922;2.346;2023-01-26T14:37:09;102194.16;;;4.64;81.00
62600;BME280;48671;48.922;2.346;2023-01-26T14:39:36;102217.44;;;4.77;81.61
62600;BME280;48671;48.922;2.346;2023-01-26T14:42:02;102203.69;;;4.75;81.39
62600;BME280;48671;48.922;2.346;2023-01-26T14:44:28;102202.84;;;4.76;81.74
62600;BME280;48671;48.922;2.346;2023-01-26T14:47:00;102208.91;;;4.84;81.52
62600;BME280;48671;48.922;2.346;2023-01-26T14:52:21;102195.09;;;4.74;81.73
62600;BME280;48671;48.922;2.346;2023-01-26T14:54:51;102224.41;;;4.87;80.96
62600;BME280;48671;48.922;2.346;2023-01-26T14:57:21;102209.78;;;4.83;81.61
62600;BME280;48671;48.922;2.346;2023-01-26T14:59:50;102220.13;;;4.84;81.44
62600;BME280;48671;48.922;2.346;2023-01-26T15:02:22;102218.47;;;4.91;82.33
62600;BME280;48671;48.922;2.346;2023-01-26T15:04:57;102191.69;;;4.78;81.14
62600;BME280;48671;48.922;2.346;2023-01-26T15:10:02;102210.66;;;4.86;81.90
62600;BME280;48671;48.922;2.346;2023-01-26T15:12:33;102210.69;;;4.89;81.67
62600;BME280;48671;48.922;2.346;2023-01-26T15:14:59;102227.13;;;5.02;81.20
62600;BME280;48671;48.922;2.346;2023-01-26T15:17:29;102228.03;;;5.04;81.66
62600;BME280;48671;48.922;2.346;2023-01-26T15:19:55;102217.66;;;5.00;81.76
62600;BME280;48671;48.922;2.346;2023-01-26T15:22:23;102215.94;;;4.97;82.29
62600;BME280;48671;48.922;2.346;2023-01-26T15:25:04;102213.31;;;4.96;82.09
62600;BME280;48671;48.922;2.346;2023-01-26T15:27:34;102214.25;;;5.01;81.92
62600;BME280;48671;48.922;2.346;2023-01-26T15:30:04;102220.34;;;5.10;81.97
62600;BME280;48671;48.922;2.346;2023-01-26T15:32:37;102215.19;;;5.10;81.61
62600;BME280;48671;48.922;2.346;2023-01-26T15:35:27;102194.44;;;4.98;81.80
62600;BME280;48671;48.922;2.346;2023-01-26T15:38:11;102203.09;;;5.06;82.15
62600;BME280;48671;48.922;2.346;2023-01-26T15:40:37;102216.03;;;5.11;81.82
62600;BME280;48671;48.922;2.346;2023-01-26T15:43:12;102231.56;;;5.17;82.56
62600;BME280;48671;48.922;2.346;2023-01-26T15:45:49;102205.66;;;5.03;82.18
62600;BME280;48671;48.922;2.346;2023-01-26T15:48:14;102203.97;;;5.07;82.21
62600;BME280;48671;48.922;2.346;2023-01-26T15:50:40;102223.84;;;5.19;82.10
62600;BME280;48671;48.922;2.346;2023-01-26T15:53:10;102224.66;;;5.14;81.88
62600;BME280;48671;48.922;2.346;2023-01-26T15:55:43;102227.31;;;5.21;82.50
62600;BME280;48671;48.922;2.346;2023-01-26T15:58:09;102220.38;;;5.15;82.23
62600;BME280;48671;48.922;2.346;2023-01-26T16:00:35;102209.13;;;5.10;82.29
62600;BME280;48671;48.922;2.346;2023-01-26T16:03:05;102221.28;;;5.22;82.18
62600;BME280;48671;48.922;2.346;2023-01-26T16:05:31;102198.84;;;5.11;82.58
62600;BME280;48671;48.922;2.346;2023-01-26T16:07:57;102222.16;;;5.24;82.45
62600;BME280;48671;48.922;2.346;2023-01-26T16:10:22;102216.97;;;5.21;82.68
62600;BME280;48671;48.922;2.346;2023-01-26T16:12:51;102223.88;;;5.26;82.47
62600;BME280;48671;48.922;2.346;2023-01-26T16:15:46;102212.69;;;5.26;82.83
62600;BME280;48671;48.922;2.346;2023-01-26T16:18:12;102217.84;;;5.26;82.71
62600;BME280;48671;48.922;2.346;2023-01-26T16:20:40;102235.16;;;5.37;82.70
62600;BME280;48671;48.922;2.346;2023-01-26T16:23:21;102222.22;;;5.30;82.62
62600;BME280;48671;48.922;2.346;2023-01-26T16:25:51;102230.84;;;5.38;82.58
62600;BME280;48671;48.922;2.346;2023-01-26T16:28:19;102233.47;;;5.39;82.75
62600;BME280;48671;48.922;2.346;2023-01-26T16:30:47;102253.31;;;5.48;82.59
62600;BME280;48671;48.922;2.346;2023-01-26T16:33:16;102230.00;;;5.37;82.42
62600;BME280;48671;48.922;2.346;2023-01-26T16:35:55;102245.53;;;5.45;82.94
62600;BME280;48671;48.922;2.346;2023-01-26T16:38:23;102237.78;;;5.45;82.51
62600;BME280;48671;48.922;2.346;2023-01-26T16:40:48;102249.88;;;5.52;82.63
62600;BME280;48671;48.922;2.346;2023-01-26T16:43:19;102256.81;;;5.56;82.13
62600;BME280;48671;48.922;2.346;2023-01-26T16:45:48;102243.91;;;5.56;82.38
62600;BME280;48671;48.922;2.346;2023-01-26T16:48:15;102239.53;;;5.49;82.01
62600;BME280;48671;48.922;2.346;2023-01-26T16:50:42;102240.44;;;5.54;82.15
62600;BME280;48671;48.922;2.346;2023-01-26T16:53:21;102245.63;;;5.57;81.98
62600;BME280;48671;48.922;2.346;2023-01-26T16:55:49;102252.53;;;5.60;81.77
62600;BME280;48671;48.922;2.346;2023-01-26T16:58:15;102263.78;;;5.70;82.05
62600;BME280;48671;48.922;2.346;2023-01-26T17:00:44;102256.84;;;5.66;81.58
62600;BME280;48671;48.922;2.346;2023-01-26T17:03:15;102250.81;;;5.62;81.68
62600;BME280;48671;48.922;2.346;2023-01-26T17:05:41;102250.81;;;5.62;81.42
62600;BME280;48671;48.922;2.346;2023-01-26T17:08:07;102253.44;;;5.68;81.32
62600;BME280;48671;48.922;2.346;2023-01-26T17:10:32;102240.47;;;5.62;81.78
